Time;durP1;ratioP1;P1;durP2;ratioP2;P2;SDS_P1;SDS_P2;PMS_P1;PMS_P2;Temp;Humidity;BMP_temperature;BMP_pressure;BME280_temperature;BME280_humidity;BME280_pressure;Samples;Min_cycle;Max_cycle;Signal;HPM_P1;HPM_P2
2023/04/10 00:00:19;;;;;;;11.85;7.32;;;;;;;;;;5051609;28;20032;-77
2023/04/10 00:03:04;;;;;;;17.48;8.95;;;;;;;;;;5064064;28;20037;-73
2023/04/10 00:05:50;;;;;;;11.57;7.50;;;;;;;;;;5067918;28;20038;-71
2023/04/10 00:08:35;;;;;;;14.13;7.97;;;;;;;;;;5067645;28;20024;-71
2023/04/10 00:11:20;;;;;;;13.98;8.20;;;;;;;;;;5061992;28;20032;-72
2023/04/10 00:14:05;;;;;;;14.15;9.00;;;;;;;;;;5067885;28;20024;-71
2023/04/10 00:16:50;;;;;;;13.18;8.13;;;;;;;;;;5057066;28;20593;-73
2023/04/10 00:19:36;;;;;;;13.88;9.00;;;;;;;;;;5067796;28;20047;-72
2023/04/10 00:22:21;;;;;;;13.13;8.43;;;;;;;;;;5063595;28;20475;-75
2023/04/10 00:25:06;;;;;;;14.57;8.30;;;;;;;;;;5066966;28;20133;-77
2023/04/10 00:27:52;;;;;;;14.05;9.27;;;;;;;;;;5064903;28;20379;-75
2023/04/10 00:30:37;;;;;;;13.20;7.45;;;;;;;;;;5066663;28;20016;-76
2023/04/10 00:33:23;;;;;;;13.52;8.40;;;;;;;;;;5067775;28;20033;-75
2023/04/10 00:36:08;;;;;;;16.00;9.18;;;;;;;;;;5067737;28;20017;-75
2023/04/10 00:38:53;;;;;;;14.68;9.30;;;;;;;;;;5067422;28;20488;-70
2023/04/10 00:41:39;;;;;;;13.27;8.23;;;;;;;;;;5067286;28;20036;-81
2023/04/10 00:44:24;;;;;;;15.02;10.00;;;;;;;;;;5065314;28;20040;-82
2023/04/10 00:47:09;;;;;;;15.32;8.70;;;;;;;;;;5059197;28;20458;-81
2023/04/10 00:49:54;;;;;;;14.07;9.18;;;;;;;;;;5058738;28;20033;-81
2023/04/10 00:52:40;;;;;;;13.32;8.45;;;;;;;;;;5047609;28;20024;-81
2023/04/10 00:55:25;;;;;;;14.13;9.00;;;;;;;;;;5066384;28;20027;-82
2023/04/10 00:58:13;;;;;;;14.65;7.97;;;;;;;;;;5067197;28;20021;-71
2023/04/10 01:00:58;;;;;;;16.25;9.25;;;;;;;;;;5057025;28;20452;-75
2023/04/10 01:03:44;;;;;;;12.85;8.15;;;;;;;;;;5053212;28;20032;-75
2023/04/10 01:06:38;;;;;;;16.05;10.10;;;;;;;;;;5063699;28;20104;-77
2023/04/10 01:09:38;;;;;;;13.60;8.25;;;;;;;;;;5050388;28;20128;-76
2023/04/10 01:12:45;;;;;;;15.43;9.77;;;;;;;;;;5048577;28;20124;-76
2023/04/10 01:15:36;;;;;;;13.68;8.65;;;;;;;;;;5048546;28;20024;-74
2023/04/10 01:18:36;;;;;;;13.10;8.65;;;;;;;;;;5066055;28;20141;-71
2023/04/10 01:21:22;;;;;;;14.32;9.00;;;;;;;;;;5064856;28;20028;-72
2023/04/10 01:24:10;;;;;;;13.07;8.23;;;;;;;;;;5058067;28;20068;-71
2023/04/10 01:26:58;;;;;;;13.10;8.23;;;;;;;;;;5067031;28;20438;-73
2023/04/10 01:29:46;;;;;;;14.70;9.52;;;;;;;;;;5066183;28;20031;-71
2023/04/10 01:32:34;;;;;;;13.70;8.70;;;;;;;;;;5056103;28;20378;-72
2023/04/10 01:35:19;;;;;;;16.58;9.00;;;;;;;;;;5066396;28;20202;-75
2023/04/10 01:38:06;;;;;;;13.07;7.60;;;;;;;;;;5066189;28;20391;-74
2023/04/10 01:40:52;;;;;;;12.73;8.38;;;;;;;;;;5066609;28;20033;-75
2023/04/10 01:43:39;;;;;;;14.65;8.82;;;;;;;;;;5069205;28;20756;-76
2023/04/10 01:46:25;;;;;;;12.85;7.85;;;;;;;;;;5069897;28;20017;-76
2023/04/10 01:49:10;;;;;;;13.68;9.13;;;;;;;;;;5056128;28;20074;-77
2023/04/10 01:51:57;;;;;;;15.43;9.95;;;;;;;;;;5070357;28;20463;-76
2023/04/10 01:54:44;;;;;;;16.90;9.00;;;;;;;;;;5069996;28;20597;-77
2023/04/10 01:57:30;;;;;;;11.75;7.78;;;;;;;;;;5055242;28;20024;-74
2023/04/10 02:00:16;;;;;;;15.48;9.73;;;;;;;;;;5070109;28;20028;-76
2023/04/10 02:03:01;;;;;;;14.02;8.68;;;;;;;;;;5058827;28;20017;-74
2023/04/10 02:06:10;;;;;;;14.32;8.93;;;;;;;;;;5054096;28;20502;-76
2023/04/10 02:08:57;;;;;;;13.68;8.70;;;;;;;;;;5067598;28;20107;-77
2023/04/10 02:11:46;;;;;;;14.60;8.52;;;;;;;;;;5049812;28;20041;-74
2023/04/10 02:14:32;;;;;;;15.02;8.60;;;;;;;;;;5069421;28;20154;-71
2023/04/10 02:17:22;;;;;;;12.25;8.30;;;;;;;;;;5060208;28;20044;-74
2023/04/10 02:20:07;;;;;;;11.65;7.70;;;;;;;;;;5068228;28;20598;-72
2023/04/10 02:22:53;;;;;;;14.43;9.27;;;;;;;;;;5056049;28;20380;-73
2023/04/10 02:25:38;;;;;;;14.45;9.63;;;;;;;;;;5069957;28;20033;-72
2023/04/10 02:28:24;;;;;;;19.90;10.32;;;;;;;;;;5069848;28;20036;-83
2023/04/10 02:31:09;;;;;;;15.52;9.57;;;;;;;;;;5069598;28;20170;-83
2023/04/10 02:33:54;;;;;;;14.77;9.05;;;;;;;;;;5039317;28;20108;-82
2023/04/10 02:36:40;;;;;;;14.88;9.07;;;;;;;;;;5062233;28;20028;-83
2023/04/10 02:39:25;;;;;;;14.35;9.20;;;;;;;;;;5062564;28;20020;-82
2023/04/10 02:42:10;;;;;;;17.02;9.48;;;;;;;;;;5069086;28;20040;-83
2023/04/10 02:44:56;;;;;;;14.30;8.85;;;;;;;;;;5066317;28;20036;-82
2023/04/10 02:47:41;;;;;;;15.50;9.10;;;;;;;;;;5061684;28;20052;-77
2023/04/10 02:50:28;;;;;;;13.48;8.38;;;;;;;;;;5059028;28;20563;-76
2023/04/10 02:53:14;;;;;;;15.30;9.10;;;;;;;;;;5055977;28;20380;-75
2023/04/10 02:56:01;;;;;;;14.23;9.25;;;;;;;;;;5068016;28;20088;-76
2023/04/10 02:58:46;;;;;;;16.67;9.38;;;;;;;;;;5063539;28;20406;-76
2023/04/10 03:01:31;;;;;;;14.57;9.10;;;;;;;;;;5064025;28;20077;-77
2023/04/10 03:04:17;;;;;;;15.18;9.20;;;;;;;;;;5057667;28;20043;-77
2023/04/10 03:07:03;;;;;;;12.68;8.20;;;;;;;;;;5068543;28;20095;-73
2023/04/10 03:09:48;;;;;;;12.90;8.65;;;;;;;;;;5069037;28;20059;-82
2023/04/10 03:12:33;;;;;;;13.27;8.35;;;;;;;;;;5051356;28;20043;-82
2023/04/10 03:15:18;;;;;;;15.63;8.98;;;;;;;;;;5063655;28;20424;-82
2023/04/10 03:18:04;;;;;;;15.30;8.60;;;;;;;;;;5063107;28;20033;-81
2023/04/10 03:20:49;;;;;;;15.57;8.90;;;;;;;;;;5066198;28;20360;-83
2023/04/10 03:23:35;;;;;;;15.40;9.82;;;;;;;;;;5057459;28;20033;-73
2023/04/10 03:26:22;;;;;;;14.65;8.80;;;;;;;;;;5068482;28;20099;-76
2023/04/10 03:29:08;;;;;;;16.33;9.63;;;;;;;;;;5057784;28;20075;-77
2023/04/10 03:31:53;;;;;;;15.55;9.60;;;;;;;;;;5054867;28;20036;-75
2023/04/10 03:34:38;;;;;;;15.55;9.05;;;;;;;;;;5039238;28;20032;-76
2023/04/10 03:37:24;;;;;;;15.60;9.65;;;;;;;;;;5067343;28;20025;-76
2023/04/10 03:40:10;;;;;;;13.25;8.65;;;;;;;;;;5066993;28;20637;-76
2023/04/10 03:42:55;;;;;;;15.75;9.70;;;;;;;;;;5067469;28;20109;-73
2023/04/10 03:45:41;;;;;;;14.80;8.57;;;;;;;;;;5060954;28;20029;-70
2023/04/10 03:48:27;;;;;;;14.30;9.68;;;;;;;;;;5055269;28;20028;-70
2023/04/10 03:51:12;;;;;;;16.27;9.25;;;;;;;;;;5040373;28;20032;-70
2023/04/10 03:53:57;;;;;;;13.40;8.50;;;;;;;;;;5055111;28;20024;-72
2023/04/10 03:56:42;;;;;;;13.88;7.97;;;;;;;;;;5067685;28;20029;-72
2023/04/10 03:59:28;;;;;;;14.43;9.00;;;;;;;;;;5068114;28;20380;-71
2023/04/10 04:02:13;;;;;;;15.18;8.48;;;;;;;;;;5053055;28;20035;-76
2023/04/10 04:04:58;;;;;;;14.57;9.23;;;;;;;;;;5047750;28;20047;-74
2023/04/10 04:07:43;;;;;;;14.82;8.32;;;;;;;;;;5064226;28;20040;-76
2023/04/10 04:10:29;;;;;;;15.60;9.50;;;;;;;;;;5050843;28;20467;-76
2023/04/10 04:13:14;;;;;;;16.17;9.98;;;;;;;;;;5068656;28;20111;-75
2023/04/10 04:15:59;;;;;;;14.43;9.02;;;;;;;;;;5062634;28;20036;-75
2023/04/10 04:18:44;;;;;;;15.40;9.27;;;;;;;;;;5052790;28;20029;-72
2023/04/10 04:21:30;;;;;;;15.65;9.05;;;;;;;;;;5062193;28;20471;-74
2023/04/10 04:24:15;;;;;;;14.43;9.32;;;;;;;;;;5062308;28;20514;-76
2023/04/10 04:27:01;;;;;;;15.95;8.75;;;;;;;;;;5066683;28;20364;-77
2023/04/10 04:29:47;;;;;;;16.60;8.55;;;;;;;;;;5050577;28;20121;-76
2023/04/10 04:32:32;;;;;;;13.70;8.43;;;;;;;;;;5065531;28;20024;-76
2023/04/10 04:35:17;;;;;;;15.82;10.07;;;;;;;;;;5054615;28;20012;-76
2023/04/10 04:38:02;;;;;;;15.65;9.25;;;;;;;;;;5067597;28;20033;-76
2023/04/10 04:40:47;;;;;;;13.68;8.50;;;;;;;;;;5068403;28;20052;-75
2023/04/10 04:43:33;;;;;;;14.15;8.38;;;;;;;;;;5067996;28;20063;-75
2023/04/10 04:46:18;;;;;;;13.85;8.40;;;;;;;;;;5068033;28;20043;-75
2023/04/10 04:49:03;;;;;;;14.07;8.02;;;;;;;;;;5056389;28;20028;-76
2023/04/10 04:51:48;;;;;;;13.35;8.70;;;;;;;;;;5065202;28;20414;-76
2023/04/10 04:54:34;;;;;;;14.80;9.25;;;;;;;;;;5067846;28;20024;-76
2023/04/10 04:57:19;;;;;;;16.05;9.25;;;;;;;;;;5061250;28;20039;-71
2023/04/10 05:00:05;;;;;;;15.27;9.13;;;;;;;;;;5063684;28;20407;-82
2023/04/10 05:02:50;;;;;;;14.57;9.02;;;;;;;;;;5068117;28;20063;-83
2023/04/10 05:05:35;;;;;;;17.30;8.75;;;;;;;;;;5051658;28;20056;-82
2023/04/10 05:08:20;;;;;;;14.98;8.43;;;;;;;;;;5068362;28;20032;-84
2023/04/10 05:11:06;;;;;;;18.00;8.90;;;;;;;;;;5035041;28;20029;-83
2023/04/10 05:13:51;;;;;;;13.73;8.77;;;;;;;;;;5054378;28;20025;-82
2023/04/10 05:16:36;;;;;;;14.18;8.93;;;;;;;;;;5064395;28;20024;-72
2023/04/10 05:19:21;;;;;;;15.05;8.93;;;;;;;;;;5060305;28;20098;-76
2023/04/10 05:22:07;;;;;;;15.75;9.90;;;;;;;;;;5059376;28;20186;-76
2023/04/10 05:24:53;;;;;;;14.57;9.25;;;;;;;;;;5063861;28;20116;-76
2023/04/10 05:27:39;;;;;;;17.27;10.00;;;;;;;;;;5044262;28;20024;-76
2023/04/10 05:30:24;;;;;;;15.02;8.57;;;;;;;;;;5049700;28;20404;-74
2023/04/10 05:33:09;;;;;;;14.73;8.65;;;;;;;;;;5054429;28;20025;-74
2023/04/10 05:35:55;;;;;;;13.63;9.10;;;;;;;;;;5071657;28;20040;-74
2023/04/10 05:38:40;;;;;;;13.40;8.82;;;;;;;;;;5071046;28;20024;-74
2023/04/10 05:41:25;;;;;;;15.07;8.95;;;;;;;;;;5068923;28;20652;-75
2023/04/10 05:44:11;;;;;;;13.52;8.70;;;;;;;;;;5070918;28;20040;-75
2023/04/10 05:46:56;;;;;;;15.57;8.77;;;;;;;;;;5041882;28;20029;-74
2023/04/10 05:49:41;;;;;;;15.23;10.05;;;;;;;;;;5058513;28;20053;-75
2023/04/10 05:52:26;;;;;;;13.45;8.60;;;;;;;;;;5059073;28;20059;-72
2023/04/10 05:55:11;;;;;;;17.50;8.73;;;;;;;;;;5070985;28;20107;-75
2023/04/10 05:57:57;;;;;;;16.05;10.00;;;;;;;;;;5049233;28;20024;-75
2023/04/10 06:00:42;;;;;;;13.85;8.13;;;;;;;;;;5057221;28;20033;-73
2023/04/10 06:03:29;;;;;;;14.80;9.63;;;;;;;;;;5060130;28;20021;-74
2023/04/10 06:06:14;;;;;;;13.70;8.52;;;;;;;;;;5070004;28;20128;-74
2023/04/10 06:08:59;;;;;;;14.77;8.80;;;;;;;;;;5068660;28;20024;-75
2023/04/10 06:11:45;;;;;;;15.48;8.52;;;;;;;;;;5056653;28;20440;-74
2023/04/10 06:14:30;;;;;;;14.38;8.23;;;;;;;;;;5038677;28;20040;-75
2023/04/10 06:17:15;;;;;;;13.85;8.60;;;;;;;;;;5053149;28;20641;-74
2023/04/10 06:20:03;;;;;;;14.27;8.60;;;;;;;;;;5061979;28;20028;-74
2023/04/10 06:22:49;;;;;;;14.32;9.00;;;;;;;;;;5056129;28;20029;-75
2023/04/10 06:25:34;;;;;;;13.23;8.18;;;;;;;;;;5069911;28;20683;-72
2023/04/10 06:28:19;;;;;;;14.65;8.15;;;;;;;;;;5069447;28;20476;-76
2023/04/10 06:31:05;;;;;;;12.63;8.40;;;;;;;;;;5062836;28;20048;-74
2023/04/10 06:33:51;;;;;;;14.45;8.20;;;;;;;;;;5069814;28;20020;-74
2023/04/10 06:36:36;;;;;;;15.60;8.88;;;;;;;;;;5069975;28;20050;-75
2023/04/10 06:39:21;;;;;;;12.63;7.90;;;;;;;;;;5069891;28;20493;-74
2023/04/10 06:42:06;;;;;;;12.35;7.28;;;;;;;;;;5069641;28;20023;-74
2023/04/10 06:44:51;;;;;;;12.40;7.97;;;;;;;;;;5069475;28;20028;-76
2023/04/10 06:47:37;;;;;;;12.32;8.18;;;;;;;;;;5061370;28;20017;-73
2023/04/10 06:50:22;;;;;;;12.50;7.55;;;;;;;;;;5054955;28;20482;-77
2023/04/10 06:53:07;;;;;;;11.23;6.68;;;;;;;;;;5069276;28;20028;-79
2023/04/10 06:55:52;;;;;;;11.25;8.02;;;;;;;;;;5068500;28;20076;-76
2023/04/10 06:58:38;;;;;;;9.40;6.88;;;;;;;;;;5068126;28;20021;-76
2023/04/10 07:01:23;;;;;;;11.73;7.88;;;;;;;;;;5068460;28;20098;-77
2023/04/10 07:04:08;;;;;;;10.70;7.47;;;;;;;;;;5061631;28;20039;-77
2023/04/10 07:06:53;;;;;;;10.43;7.20;;;;;;;;;;5068888;28;20378;-75
2023/04/10 07:09:39;;;;;;;13.60;8.25;;;;;;;;;;5048768;28;20033;-76
2023/04/10 07:12:24;;;;;;;12.93;8.10;;;;;;;;;;5066666;28;20016;-75
2023/04/10 07:15:11;;;;;;;10.65;7.65;;;;;;;;;;5067942;28;20025;-75
2023/04/10 07:17:56;;;;;;;10.40;6.60;;;;;;;;;;5064199;28;20025;-77
2023/04/10 07:20:41;;;;;;;10.15;6.28;;;;;;;;;;5063526;28;20025;-76
2023/04/10 07:23:27;;;;;;;9.45;6.07;;;;;;;;;;5068446;28;20385;-79
2023/04/10 07:26:12;;;;;;;9.10;6.60;;;;;;;;;;5069858;28;20037;-76
2023/04/10 07:28:57;;;;;;;8.90;6.43;;;;;;;;;;5068118;28;20383;-76
2023/04/10 07:31:43;;;;;;;8.80;6.03;;;;;;;;;;5067771;28;20109;-76
2023/04/10 07:34:29;;;;;;;10.45;5.75;;;;;;;;;;5067503;28;20027;-76
2023/04/10 07:37:15;;;;;;;8.55;6.05;;;;;;;;;;5050180;28;20101;-75
2023/04/10 07:40:01;;;;;;;8.50;5.70;;;;;;;;;;5051149;28;20099;-75
2023/04/10 07:42:46;;;;;;;8.18;5.38;;;;;;;;;;5066246;28;20111;-73
2023/04/10 07:45:32;;;;;;;6.85;5.05;;;;;;;;;;5066627;28;20028;-70
2023/04/10 07:48:17;;;;;;;6.47;5.03;;;;;;;;;;5042558;28;20073;-70
2023/04/10 07:51:03;;;;;;;7.50;5.03;;;;;;;;;;5057497;28;20052;-72
2023/04/10 07:53:48;;;;;;;6.10;4.78;;;;;;;;;;5051231;28;20439;-70
2023/04/10 07:56:33;;;;;;;6.65;4.72;;;;;;;;;;5066361;28;20044;-70
2023/04/10 07:59:18;;;;;;;6.88;4.70;;;;;;;;;;5052733;28;20498;-70
2023/04/10 08:02:04;;;;;;;6.25;4.60;;;;;;;;;;5051910;28;20035;-75
2023/04/10 08:04:49;;;;;;;6.18;4.32;;;;;;;;;;5057328;28;20665;-74
2023/04/10 08:07:35;;;;;;;7.25;5.20;;;;;;;;;;5050077;28;20036;-70
2023/04/10 08:10:20;;;;;;;7.20;4.75;;;;;;;;;;5065857;28;20158;-73
2023/04/10 08:13:05;;;;;;;6.70;4.97;;;;;;;;;;5068495;28;20028;-72
2023/04/10 08:15:50;;;;;;;6.28;4.47;;;;;;;;;;5068417;28;20052;-72
2023/04/10 08:18:36;;;;;;;6.10;4.22;;;;;;;;;;5058424;28;20537;-69
2023/04/10 08:21:21;;;;;;;6.90;5.15;;;;;;;;;;5052288;28;20120;-70
2023/04/10 08:24:06;;;;;;;5.47;4.45;;;;;;;;;;5052800;28;20029;-71
2023/04/10 08:26:52;;;;;;;5.65;4.22;;;;;;;;;;5055796;28;20040;-70
2023/04/10 08:29:37;;;;;;;6.18;4.20;;;;;;;;;;5067905;28;20043;-70
2023/04/10 08:32:25;;;;;;;5.80;4.20;;;;;;;;;;5068029;28;20271;-68
2023/04/10 08:35:10;;;;;;;7.13;4.85;;;;;;;;;;5067740;28;20483;-71
2023/04/10 08:37:55;;;;;;;4.57;3.85;;;;;;;;;;5066870;28;20155;-85
2023/04/10 08:40:41;;;;;;;6.35;4.10;;;;;;;;;;5057681;28;20115;-72
2023/04/10 08:43:26;;;;;;;5.68;4.00;;;;;;;;;;5050131;28;20455;-71
2023/04/10 08:46:13;;;;;;;5.75;4.10;;;;;;;;;;5067624;28;20225;-71
2023/04/10 08:49:02;;;;;;;4.70;3.70;;;;;;;;;;5062183;28;20401;-70
2023/04/10 08:51:47;;;;;;;;;;;;;;;;;;5066380;28;20056;-72
2023/04/10 08:54:34;;;;;;;6.03;4.00;;;;;;;;;;5063546;28;19950;-71
2023/04/10 08:57:21;;;;;;;6.65;3.80;;;;;;;;;;5071588;28;20016;-74
2023/04/10 09:03:26;;;;;;;5.53;3.97;;;;;;;;;;5073399;28;20618;-84
2023/04/10 09:06:12;;;;;;;5.85;3.83;;;;;;;;;;5073523;28;20041;-84
2023/04/10 09:08:58;;;;;;;5.80;3.90;;;;;;;;;;5077092;28;20045;-83
2023/04/10 09:11:59;;;;;;;6.28;4.28;;;;;;;;;;5077046;28;20055;-84
2023/04/10 09:14:45;;;;;;;5.28;4.00;;;;;;;;;;5073524;28;20040;-73
2023/04/10 09:17:30;;;;;;;5.28;3.85;;;;;;;;;;5054724;28;20122;-74
2023/04/10 09:20:22;;;;;;;4.95;3.47;;;;;;;;;;5064515;28;20495;-77
2023/04/10 09:23:23;;;;;;;4.95;3.63;;;;;;;;;;5068789;28;20028;-76
2023/04/10 09:26:28;;;;;;;4.90;3.63;;;;;;;;;;5051877;28;20044;-76
2023/04/10 09:29:15;;;;;;;3.88;3.10;;;;;;;;;;5070038;28;20547;-76
2023/04/10 09:32:01;;;;;;;5.35;3.35;;;;;;;;;;5070036;28;20036;-72
2023/04/10 09:34:53;;;;;;;3.42;3.08;;;;;;;;;;5068370;28;20391;-76
2023/04/10 09:37:42;;;;;;;5.50;3.20;;;;;;;;;;5069440;28;20028;-76
2023/04/10 09:40:27;;;;;;;4.32;2.85;;;;;;;;;;5069595;28;20738;-75
2023/04/10 09:43:23;;;;;;;3.85;3.05;;;;;;;;;;5069254;28;20116;-75
2023/04/10 09:46:08;;;;;;;2.92;2.63;;;;;;;;;;5062859;28;20036;-76
2023/04/10 09:48:55;;;;;;;3.53;2.80;;;;;;;;;;5054819;28;20025;-77
2023/04/10 09:51:42;;;;;;;3.70;2.70;;;;;;;;;;5066232;28;20063;-78
2023/04/10 09:54:36;;;;;;;3.13;2.63;;;;;;;;;;5070978;28;20467;-74
2023/04/10 09:57:23;;;;;;;3.95;2.75;;;;;;;;;;5070571;28;20021;-76
2023/04/10 10:00:08;;;;;;;3.30;2.70;;;;;;;;;;5070604;28;20375;-77
2023/04/10 10:02:55;;;;;;;5.90;2.65;;;;;;;;;;5062900;28;20492;-75
2023/04/10 10:05:41;;;;;;;3.28;2.83;;;;;;;;;;5066922;28;20037;-75
2023/04/10 10:08:27;;;;;;;3.58;2.60;;;;;;;;;;5054336;28;20056;-76
2023/04/10 10:11:14;;;;;;;3.70;2.50;;;;;;;;;;5071019;28;20050;-69
2023/04/10 10:14:02;;;;;;;3.03;2.38;;;;;;;;;;5052676;28;20124;-73
2023/04/10 10:16:51;;;;;;;3.38;2.47;;;;;;;;;;5068943;28;20024;-71
2023/04/10 10:19:56;;;;;;;2.72;2.15;;;;;;;;;;5067079;28;20463;-70
2023/04/10 10:22:42;;;;;;;3.50;2.25;;;;;;;;;;5053436;28;20032;-73
2023/04/10 10:25:27;;;;;;;2.88;1.98;;;;;;;;;;5069064;28;20033;-74
2023/04/10 10:28:13;;;;;;;2.75;2.08;;;;;;;;;;5069013;28;20056;-74
2023/04/10 10:30:59;;;;;;;1.98;1.60;;;;;;;;;;5070306;28;20036;-75
2023/04/10 10:33:46;;;;;;;2.85;2.17;;;;;;;;;;5069962;28;20028;-77
2023/04/10 10:36:32;;;;;;;2.78;1.98;;;;;;;;;;5071448;28;20107;-77
2023/04/10 10:39:20;;;;;;;2.35;2.05;;;;;;;;;;5072039;28;20032;-77
2023/04/10 10:42:05;;;;;;;2.35;1.95;;;;;;;;;;5070652;28;20027;-77
2023/04/10 10:44:58;;;;;;;2.10;1.77;;;;;;;;;;5068085;28;20045;-77
2023/04/10 10:47:52;;;;;;;2.05;1.80;;;;;;;;;;5062127;28;20115;-72
2023/04/10 10:50:56;;;;;;;1.95;1.73;;;;;;;;;;5067158;28;20020;-78
2023/04/10 10:53:42;;;;;;;1.73;1.63;;;;;;;;;;5069312;28;20044;-78
2023/04/10 10:56:27;;;;;;;2.45;1.80;;;;;;;;;;5052829;28;20032;-77
2023/04/10 10:59:13;;;;;;;3.00;1.73;;;;;;;;;;5063054;28;20035;-77
2023/04/10 11:02:17;;;;;;;2.70;2.00;;;;;;;;;;5059186;28;20043;-78
2023/04/10 11:05:02;;;;;;;2.47;1.95;;;;;;;;;;5057412;28;20043;-77
2023/04/10 11:07:57;;;;;;;2.20;1.67;;;;;;;;;;5070182;28;20044;-76
2023/04/10 11:10:57;;;;;;;4.68;1.80;;;;;;;;;;5061717;28;20775;-75
2023/04/10 11:13:49;;;;;;;2.35;1.73;;;;;;;;;;5074269;28;20031;-77
2023/04/10 11:16:39;;;;;;;2.35;1.98;;;;;;;;;;5063113;28;20017;-77
2023/04/10 11:19:24;;;;;;;1.95;1.75;;;;;;;;;;5069063;28;20029;-75
2023/04/10 11:22:14;;;;;;;2.38;1.80;;;;;;;;;;5057999;28;20025;-74
2023/04/10 11:24:59;;;;;;;;;;;;;;;;;;5069473;28;20049;-72
2023/04/10 11:27:47;;;;;;;3.53;2.03;;;;;;;;;;5069546;28;19911;-88
2023/04/10 11:30:33;;;;;;;1.67;1.50;;;;;;;;;;5069666;28;20021;-89
2023/04/10 11:33:19;;;;;;;2.22;1.77;;;;;;;;;;5060732;28;20582;-85
2023/04/10 11:36:05;;;;;;;1.50;1.40;;;;;;;;;;5051645;28;20063;-85
2023/04/10 11:38:54;;;;;;;2.00;1.50;;;;;;;;;;5046116;28;20037;-85
2023/04/10 11:41:40;;;;;;;1.95;1.40;;;;;;;;;;5065881;28;20067;-73
2023/04/10 11:44:27;;;;;;;2.20;1.50;;;;;;;;;;5068529;28;20203;-82
2023/04/10 11:47:12;;;;;;;2.13;1.70;;;;;;;;;;5068782;28;20020;-82
2023/04/10 11:49:57;;;;;;;2.08;1.42;;;;;;;;;;5068229;28;20703;-84
2023/04/10 11:52:43;;;;;;;1.58;1.48;;;;;;;;;;5069046;28;20107;-82
2023/04/10 11:55:35;;;;;;;1.10;1.00;;;;;;;;;;5069960;28;20029;-85
2023/04/10 11:58:24;;;;;;;1.40;1.30;;;;;;;;;;5068998;28;20549;-85
2023/04/10 12:01:13;;;;;;;3.30;1.52;;;;;;;;;;5067964;28;20529;-87
2023/04/10 12:03:59;;;;;;;1.55;1.25;;;;;;;;;;5066929;28;20048;-73
2023/04/10 12:06:48;;;;;;;2.33;1.60;;;;;;;;;;5066497;28;20053;-72
2023/04/10 12:09:33;;;;;;;1.33;1.23;;;;;;;;;;5063103;28;20029;-72
2023/04/10 12:12:19;;;;;;;1.45;1.33;;;;;;;;;;5068419;28;20036;-71
2023/04/10 12:15:24;;;;;;;1.23;1.13;;;;;;;;;;5068357;28;20025;-71
2023/04/10 12:18:09;;;;;;;1.13;1.00;;;;;;;;;;5038345;28;20039;-81
2023/04/10 12:20:56;;;;;;;1.70;1.02;;;;;;;;;;5052180;28;20020;-74
2023/04/10 12:23:41;;;;;;;0.85;0.85;;;;;;;;;;5046960;28;20036;-74
2023/04/10 12:26:26;;;;;;;1.02;0.93;;;;;;;;;;5066104;28;20066;-74
2023/04/10 12:29:12;;;;;;;0.80;0.80;;;;;;;;;;5068058;28;20032;-74
2023/04/10 12:31:57;;;;;;;1.40;1.00;;;;;;;;;;5067995;28;20036;-74
2023/04/10 12:34:52;;;;;;;1.10;1.00;;;;;;;;;;5064523;28;20020;-75
2023/04/10 12:37:51;;;;;;;0.95;0.90;;;;;;;;;;5068688;28;20028;-69
2023/04/10 12:40:37;;;;;;;0.90;0.90;;;;;;;;;;5062649;28;20431;-71
2023/04/10 12:43:34;;;;;;;1.58;1.15;;;;;;;;;;5064223;28;20113;-71
2023/04/10 12:46:25;;;;;;;1.10;1.00;;;;;;;;;;5066731;28;20059;-72
2023/04/10 12:49:11;;;;;;;1.00;0.88;;;;;;;;;;5050632;28;20025;-72
2023/04/10 12:51:56;;;;;;;1.13;1.02;;;;;;;;;;5064811;28;20024;-72
2023/04/10 12:54:41;;;;;;;1.27;1.17;;;;;;;;;;5066647;28;20024;-71
2023/04/10 12:57:27;;;;;;;3.55;1.20;;;;;;;;;;5061103;28;20028;-69
2023/04/10 13:00:13;;;;;;;0.88;0.80;;;;;;;;;;5064023;28;20056;-69
2023/04/10 13:03:01;;;;;;;1.08;0.95;;;;;;;;;;5067621;28;20048;-70
2023/04/10 13:05:46;;;;;;;1.08;0.88;;;;;;;;;;5061663;28;20467;-69
2023/04/10 13:08:32;;;;;;;2.00;1.25;;;;;;;;;;5067591;28;20073;-70
2023/04/10 13:11:17;;;;;;;1.30;1.20;;;;;;;;;;5067634;28;20085;-69
2023/04/10 13:14:02;;;;;;;1.20;1.10;;;;;;;;;;5065423;28;20147;-74
2023/04/10 13:16:47;;;;;;;1.75;1.40;;;;;;;;;;5067217;28;20027;-71
2023/04/10 13:19:33;;;;;;;1.13;1.02;;;;;;;;;;5055836;28;20017;-72
2023/04/10 13:22:18;;;;;;;1.40;1.13;;;;;;;;;;5053816;28;20056;-72
2023/04/10 13:25:04;;;;;;;2.25;1.60;;;;;;;;;;5053010;28;20024;-73
2023/04/10 13:27:49;;;;;;;1.15;1.05;;;;;;;;;;5065907;28;20489;-72
2023/04/10 13:30:34;;;;;;;1.50;1.20;;;;;;;;;;5065963;28;20054;-75
2023/04/10 13:33:21;;;;;;;1.85;1.30;;;;;;;;;;5066018;28;20040;-75
2023/04/10 13:36:06;;;;;;;1.58;1.10;;;;;;;;;;5066054;28;20479;-71
2023/04/10 13:38:51;;;;;;;4.93;1.30;;;;;;;;;;5069956;28;20086;-72
2023/04/10 13:41:36;;;;;;;1.83;1.67;;;;;;;;;;5069723;28;20020;-71
2023/04/10 13:44:22;;;;;;;1.58;1.40;;;;;;;;;;5069773;28;20119;-72
2023/04/10 13:47:07;;;;;;;1.88;1.48;;;;;;;;;;5055771;28;20036;-71
2023/04/10 13:49:52;;;;;;;1.92;1.40;;;;;;;;;;5059563;28;20476;-75
2023/04/10 13:52:37;;;;;;;3.00;1.58;;;;;;;;;;5063879;28;20024;-80
2023/04/10 13:55:23;;;;;;;1.52;1.20;;;;;;;;;;5069142;28;20032;-82
2023/04/10 13:58:12;;;;;;;2.83;1.75;;;;;;;;;;5069912;28;20036;-82
2023/04/10 14:00:57;;;;;;;2.38;1.40;;;;;;;;;;5070552;28;20062;-79
2023/04/10 14:03:42;;;;;;;1.45;1.35;;;;;;;;;;5042588;28;20468;-81
2023/04/10 14:06:27;;;;;;;2.45;1.75;;;;;;;;;;5069825;28;20048;-81
2023/04/10 14:09:13;;;;;;;2.08;1.50;;;;;;;;;;5070529;28;20035;-72
2023/04/10 14:11:58;;;;;;;1.40;1.20;;;;;;;;;;5065670;28;20376;-73
2023/04/10 14:14:44;;;;;;;1.63;1.27;;;;;;;;;;5070550;28;20025;-71
2023/04/10 14:17:29;;;;;;;1.75;1.60;;;;;;;;;;5069357;28;20474;-73
2023/04/10 14:20:15;;;;;;;2.30;1.58;;;;;;;;;;5064122;28;20028;-71
2023/04/10 14:23:00;;;;;;;2.53;1.40;;;;;;;;;;5056352;28;20067;-73
2023/04/10 14:25:46;;;;;;;1.60;1.40;;;;;;;;;;5069993;28;20341;-74
2023/04/10 14:28:31;;;;;;;1.88;1.55;;;;;;;;;;5070533;28;20165;-79
2023/04/10 14:31:16;;;;;;;1.58;1.35;;;;;;;;;;5069883;28;20488;-73
2023/04/10 14:34:01;;;;;;;3.38;1.42;;;;;;;;;;5069824;28;20020;-72
2023/04/10 14:36:47;;;;;;;3.67;2.08;;;;;;;;;;5069915;28;20036;-72
2023/04/10 14:39:33;;;;;;;2.22;1.40;;;;;;;;;;5063831;28;20064;-73
2023/04/10 14:42:19;;;;;;;2.00;1.63;;;;;;;;;;5070167;28;20037;-70
2023/04/10 14:45:05;;;;;;;1.52;1.42;;;;;;;;;;5056082;28;20036;-70
2023/04/10 14:47:50;;;;;;;2.47;1.50;;;;;;;;;;5060841;28;20095;-75
2023/04/10 14:50:35;;;;;;;1.40;1.30;;;;;;;;;;5067560;28;20467;-75
2023/04/10 14:53:21;;;;;;;2.00;1.63;;;;;;;;;;5069482;28;20047;-75
2023/04/10 14:56:10;;;;;;;2.05;1.63;;;;;;;;;;5063209;28;20117;-75
2023/04/10 14:58:56;;;;;;;1.70;1.35;;;;;;;;;;5066773;28;20020;-79
2023/04/10 15:01:41;;;;;;;5.22;1.90;;;;;;;;;;5066219;28;20036;-78
2023/04/10 15:04:27;;;;;;;2.13;1.05;;;;;;;;;;5067779;28;20108;-78
2023/04/10 15:07:12;;;;;;;1.83;1.42;;;;;;;;;;5052715;28;20052;-79
2023/04/10 15:09:57;;;;;;;1.88;1.40;;;;;;;;;;5065287;28;20021;-78
2023/04/10 15:12:43;;;;;;;2.25;1.55;;;;;;;;;;5056426;28;20028;-76
2023/04/10 15:15:28;;;;;;;2.17;1.60;;;;;;;;;;5054757;28;20028;-77
2023/04/10 15:18:16;;;;;;;2.03;1.52;;;;;;;;;;5058573;28;20575;-75
2023/04/10 15:21:02;;;;;;;2.08;1.58;;;;;;;;;;5064007;28;20025;-75
2023/04/10 15:23:47;;;;;;;1.50;1.30;;;;;;;;;;5058455;28;20033;-73
2023/04/10 15:26:32;;;;;;;1.95;1.45;;;;;;;;;;5066302;28;20471;-72
2023/04/10 15:29:18;;;;;;;1.88;1.50;;;;;;;;;;5069005;28;20028;-72
2023/04/10 15:32:03;;;;;;;1.52;1.20;;;;;;;;;;5068741;28;20635;-71
2023/04/10 15:34:48;;;;;;;1.60;1.30;;;;;;;;;;5068341;28;20108;-74
2023/04/10 15:37:34;;;;;;;1.80;1.40;;;;;;;;;;5068948;28;20066;-72
2023/04/10 15:40:19;;;;;;;2.75;1.63;;;;;;;;;;5068742;28;20479;-75
2023/04/10 15:43:04;;;;;;;1.67;1.30;;;;;;;;;;5067077;28;20078;-80
2023/04/10 15:45:49;;;;;;;2.45;1.58;;;;;;;;;;5049825;28;20037;-81
2023/04/10 15:48:35;;;;;;;1.70;1.40;;;;;;;;;;5062803;28;20020;-79
2023/04/10 15:51:20;;;;;;;2.83;1.65;;;;;;;;;;5063014;28;20107;-79
2023/04/10 15:54:05;;;;;;;2.20;1.60;;;;;;;;;;5061352;28;20028;-79
2023/04/10 15:56:50;;;;;;;2.45;1.63;;;;;;;;;;5065568;28;20047;-80
2023/04/10 15:59:35;;;;;;;2.03;1.55;;;;;;;;;;5060877;28;20040;-74
2023/04/10 16:02:21;;;;;;;2.00;1.60;;;;;;;;;;5065135;28;20024;-76
2023/04/10 16:05:07;;;;;;;1.95;1.60;;;;;;;;;;5067801;28;20036;-77
2023/04/10 16:07:53;;;;;;;2.00;1.65;;;;;;;;;;5067822;28;20503;-78
2023/04/10 16:10:38;;;;;;;2.03;1.80;;;;;;;;;;5064146;28;20119;-77
2023/04/10 16:13:23;;;;;;;2.67;1.70;;;;;;;;;;5060840;28;20047;-75
2023/04/10 16:16:12;;;;;;;2.60;1.60;;;;;;;;;;5065041;28;20044;-76
2023/04/10 16:18:59;;;;;;;1.73;1.40;;;;;;;;;;5057411;28;20060;-79
2023/04/10 16:21:44;;;;;;;1.95;1.70;;;;;;;;;;5060587;28;20033;-78
2023/04/10 16:24:31;;;;;;;2.53;1.73;;;;;;;;;;5067523;28;20047;-80
2023/04/10 16:27:16;;;;;;;1.95;1.50;;;;;;;;;;5047695;28;20025;-79
2023/04/10 16:30:02;;;;;;;1.98;1.77;;;;;;;;;;5067878;28;20028;-79
2023/04/10 16:32:47;;;;;;;2.05;1.38;;;;;;;;;;5067637;28;20032;-80
2023/04/10 16:35:32;;;;;;;1.85;1.40;;;;;;;;;;5067923;28;20048;-71